Time;durP1;ratioP1;P1;durP2;ratioP2;P2;SDS_P1;SDS_P2;PMS_P1;PMS_P2;Temp;Humidity;BMP_temperature;BMP_pressure;BME280_temperature;BME280_humidity;BME280_pressure;Samples;Min_cycle;Max_cycle;Signal;HPM_P1;HPM_P2
2021/06/11 00:00:25;;;;;;;18.92;8.65;;;20.10;62.80;;;;;;5137183;27;20109;-37
2021/06/11 00:02:51;;;;;;;11.18;8.20;;;20.20;62.90;;;;;;5137140;27;20023;-36
2021/06/11 00:05:16;;;;;;;10.43;7.40;;;20.00;63.40;;;;;;5137538;27;20023;-36
2021/06/11 00:07:42;;;;;;;10.23;8.32;;;20.10;63.60;;;;;;5137329;27;20373;-36
2021/06/11 00:10:11;;;;;;;10.45;8.18;;;20.00;63.80;;;;;;5137444;27;20340;-36
2021/06/11 00:12:38;;;;;;;9.65;8.65;;;19.90;64.30;;;;;;5135606;27;20079;-36
2021/06/11 00:15:06;;;;;;;11.13;7.80;;;19.80;64.80;;;;;;5137151;27;20051;-36
2021/06/11 00:17:32;;;;;;;11.98;9.57;;;19.80;65.00;;;;;;5136753;27;20017;-36
2021/06/11 00:19:58;;;;;;;14.07;8.15;;;19.80;65.30;;;;;;5136746;27;20118;-37
2021/06/11 00:22:23;;;;;;;13.05;8.73;;;19.80;65.50;;;;;;5136555;27;20062;-36
2021/06/11 00:24:49;;;;;;;13.32;7.78;;;19.70;66.00;;;;;;5136601;27;20502;-36
2021/06/11 00:27:15;;;;;;;7.97;7.18;;;19.80;66.40;;;;;;5136589;27;20493;-36
2021/06/11 00:29:40;;;;;;;12.93;8.20;;;19.70;66.20;;;;;;5136673;27;20583;-36
2021/06/11 00:32:06;;;;;;;10.45;8.05;;;19.70;66.80;;;;;;5136650;27;20459;-36
2021/06/11 00:34:32;;;;;;;10.40;7.32;;;19.60;67.10;;;;;;5136294;27;20103;-36
2021/06/11 00:36:58;;;;;;;11.75;7.72;;;19.50;67.60;;;;;;5136380;27;20018;-36
2021/06/11 00:39:23;;;;;;;13.90;7.97;;;19.50;68.00;;;;;;5136558;27;20035;-36
2021/06/11 00:41:49;;;;;;;9.60;7.80;;;19.60;67.70;;;;;;5136225;27;20111;-36
2021/06/11 00:44:15;;;;;;;10.23;8.05;;;19.60;67.50;;;;;;5136481;27;20023;-36
2021/06/11 00:46:41;;;;;;;10.65;8.90;;;19.50;68.10;;;;;;5136449;27;20100;-36
2021/06/11 00:49:07;;;;;;;8.95;7.75;;;19.40;68.40;;;;;;5136211;27;20027;-36
2021/06/11 00:51:32;;;;;;;17.15;9.40;;;19.50;68.30;;;;;;5136388;27;20106;-36
2021/06/11 00:53:58;;;;;;;12.73;7.72;;;19.40;68.90;;;;;;5136033;27;20072;-36
2021/06/11 00:56:24;;;;;;;10.77;7.72;;;19.30;69.00;;;;;;5135690;27;20012;-36
2021/06/11 00:58:50;;;;;;;11.60;7.22;;;19.10;69.80;;;;;;5135560;27;20094;-36
2021/06/11 01:01:16;;;;;;;8.48;7.47;;;19.00;70.50;;;;;;5135790;27;20070;-36
2021/06/11 01:03:41;;;;;;;12.40;7.65;;;18.80;71.50;;;;;;5135761;27;20031;-36
2021/06/11 01:06:07;;;;;;;12.48;7.28;;;18.60;72.00;;;;;;5135355;27;20030;-36
2021/06/11 01:08:33;;;;;;;10.82;7.25;;;18.60;72.40;;;;;;5135536;27;20020;-36
2021/06/11 01:10:59;;;;;;;9.95;8.30;;;18.70;72.40;;;;;;5135656;27;20490;-36
2021/06/11 01:13:26;;;;;;;10.20;7.60;;;18.80;72.00;;;;;;5116882;27;20385;-36
2021/06/11 01:15:52;;;;;;;11.00;8.05;;;18.70;72.10;;;;;;5135274;27;20029;-37
2021/06/11 01:18:19;;;;;;;11.60;8.30;;;18.50;72.80;;;;;;5135653;27;20019;-36
2021/06/11 01:20:46;;;;;;;12.57;8.43;;;18.30;73.90;;;;;;5133992;27;20030;-36
2021/06/11 01:23:40;;;;;;;9.63;8.60;;;18.30;74.50;;;;;;5135043;27;20030;-36
2021/06/11 01:26:32;;;;;;;14.38;9.07;;;18.30;74.40;;;;;;5136078;27;20118;-36
2021/06/11 01:29:14;;;;;;;10.57;8.73;;;18.30;74.50;;;;;;5134865;27;20023;-35
2021/06/11 01:31:44;;;;;;;10.68;8.55;;;18.20;74.90;;;;;;5135241;27;20027;-36
2021/06/11 01:34:19;;;;;;;15.27;8.95;;;17.90;76.00;;;;;;5134988;27;20027;-38
2021/06/11 01:36:52;;;;;;;9.52;8.48;;;17.90;76.40;;;;;;5135351;27;20023;-36
2021/06/11 01:39:20;;;;;;;14.32;9.63;;;17.90;76.60;;;;;;5135277;27;20026;-36
2021/06/11 01:41:47;;;;;;;14.82;9.52;;;17.90;76.70;;;;;;5134942;27;20023;-36
2021/06/11 01:44:15;;;;;;;12.65;9.55;;;17.90;76.80;;;;;;5135372;27;20050;-36
2021/06/11 01:46:43;;;;;;;13.05;8.52;;;18.00;76.60;;;;;;5135064;27;20034;-36
2021/06/11 01:49:09;;;;;;;19.00;11.18;;;17.80;77.10;;;;;;5134544;27;20050;-37
2021/06/11 01:51:37;;;;;;;13.50;8.75;;;17.80;77.40;;;;;;5133288;27;20505;-36
2021/06/11 01:54:07;;;;;;;17.35;11.18;;;17.70;77.90;;;;;;5134847;27;20015;-36
2021/06/11 01:56:34;;;;;;;10.43;9.07;;;17.70;78.00;;;;;;5133348;27;20080;-36
2021/06/11 01:59:01;;;;;;;13.07;9.38;;;17.60;78.30;;;;;;5115960;27;20026;-36
2021/06/11 02:01:28;;;;;;;13.63;9.55;;;17.60;78.50;;;;;;5134523;27;20023;-36
2021/06/11 02:03:54;;;;;;;12.98;9.77;;;17.50;78.80;;;;;;5134499;27;20038;-37
2021/06/11 02:06:21;;;;;;;13.85;10.63;;;17.50;79.00;;;;;;5134526;27;20026;-37
2021/06/11 02:08:50;;;;;;;13.65;10.48;;;17.50;79.20;;;;;;5134871;27;20116;-37
2021/06/11 02:11:17;;;;;;;14.23;10.33;;;17.50;79.30;;;;;;5134574;27;20027;-38
2021/06/11 02:13:46;;;;;;;17.30;10.70;;;17.50;79.30;;;;;;5135008;27;20119;-38
2021/06/11 02:16:14;;;;;;;17.58;10.68;;;17.50;79.30;;;;;;5133530;27;20027;-37
2021/06/11 02:18:40;;;;;;;17.10;9.85;;;17.60;79.20;;;;;;5134837;27;20084;-37
2021/06/11 02:21:07;;;;;;;16.00;9.70;;;17.50;79.40;;;;;;5134537;27;20019;-36
2021/06/11 02:23:34;;;;;;;15.13;11.20;;;17.50;79.30;;;;;;5134528;27;20023;-36
2021/06/11 02:26:04;;;;;;;19.35;10.35;;;17.70;78.80;;;;;;5135583;27;20061;-36
2021/06/11 02:28:30;;;;;;;16.95;10.13;;;17.50;79.60;;;;;;5136193;27;20027;-36
2021/06/11 02:30:58;;;;;;;18.00;11.10;;;17.50;80.10;;;;;;5135214;27;20111;-37
2021/06/11 02:33:24;;;;;;;16.00;10.35;;;17.50;79.90;;;;;;5134415;27;20042;-36
2021/06/11 02:35:50;;;;;;;17.30;10.75;;;17.60;79.90;;;;;;5134628;27;20054;-36
2021/06/11 02:38:15;;;;;;;16.23;11.85;;;17.40;80.20;;;;;;5134450;28;20054;-37
2021/06/11 02:40:41;;;;;;;14.30;11.13;;;17.40;80.60;;;;;;5133491;28;20067;-36
2021/06/11 02:43:13;;;;;;;17.67;10.35;;;17.50;79.90;;;;;;5134649;27;20535;-36
2021/06/11 02:45:56;;;;;;;17.77;10.93;;;17.30;80.60;;;;;;5134567;27;20023;-36
2021/06/11 02:48:25;;;;;;;11.98;9.88;;;17.20;81.20;;;;;;5134564;27;20027;-36
2021/06/11 02:51:07;;;;;;;12.68;9.13;;;17.30;81.20;;;;;;5132881;28;20023;-36
2021/06/11 02:53:35;;;;;;;14.25;11.30;;;17.20;81.50;;;;;;5137292;27;20015;-36
2021/06/11 02:56:14;;;;;;;15.00;10.68;;;17.10;81.60;;;;;;5138648;27;20015;-36
2021/06/11 02:58:47;;;;;;;13.32;11.30;;;17.20;81.40;;;;;;5138420;27;20359;-37
2021/06/11 03:01:14;;;;;;;14.27;10.82;;;17.10;81.80;;;;;;5138361;27;20054;-36
2021/06/11 03:03:41;;;;;;;16.67;12.40;;;17.20;81.80;;;;;;5138163;27;20028;-36
2021/06/11 03:06:10;;;;;;;17.25;11.85;;;17.20;81.90;;;;;;5137232;27;20027;-36
2021/06/11 03:08:39;;;;;;;17.27;11.50;;;17.00;82.60;;;;;;5138127;27;20038;-36
2021/06/11 03:11:09;;;;;;;17.35;11.38;;;17.00;82.40;;;;;;5138283;27;20076;-36
2021/06/11 03:13:35;;;;;;;15.45;12.23;;;16.90;82.70;;;;;;5138264;27;20027;-36
2021/06/11 03:16:03;;;;;;;17.40;13.07;;;16.90;82.90;;;;;;5138364;27;20027;-36
2021/06/11 03:18:42;;;;;;;16.42;10.82;;;16.80;82.90;;;;;;5138239;27;20377;-36
2021/06/11 03:21:18;;;;;;;15.80;11.43;;;16.80;82.80;;;;;;5138101;27;20102;-36
2021/06/11 03:24:04;;;;;;;14.23;11.23;;;17.00;82.70;;;;;;5137936;27;20027;-36
2021/06/11 03:26:55;;;;;;;12.45;10.45;;;16.90;82.70;;;;;;5137871;27;20035;-36
2021/06/11 03:29:28;;;;;;;12.55;10.55;;;16.80;83.00;;;;;;5137543;27;20043;-36
2021/06/11 03:31:57;;;;;;;17.52;11.52;;;16.90;83.10;;;;;;5137998;27;20047;-36
2021/06/11 03:34:30;;;;;;;14.95;12.30;;;17.00;83.10;;;;;;5138036;27;20046;-36
2021/06/11 03:36:57;;;;;;;15.85;13.23;;;16.90;83.30;;;;;;5138490;27;20023;-36
2021/06/11 03:39:30;;;;;;;17.25;12.02;;;17.00;83.10;;;;;;5137843;27;20027;-36
2021/06/11 03:41:57;;;;;;;13.63;11.73;;;17.00;83.10;;;;;;5137869;27;20023;-38
2021/06/11 03:44:24;;;;;;;27.08;12.57;;;16.90;83.30;;;;;;5137790;27;20458;-36
2021/06/11 03:46:52;;;;;;;18.55;12.48;;;17.10;82.70;;;;;;5137507;27;20475;-37
2021/06/11 03:49:22;;;;;;;15.15;11.43;;;17.10;82.40;;;;;;5137673;27;20370;-36
2021/06/11 03:51:48;;;;;;;;;;;17.00;82.90;;;;;;5138131;27;20026;-36
2021/06/11 03:54:18;;;;;;;15.43;11.50;;;17.00;82.80;;;;;;5137361;27;19904;-36
2021/06/11 03:56:45;;;;;;;13.57;10.85;;;17.00;82.80;;;;;;5137242;27;20029;-37
2021/06/11 03:59:14;;;;;;;15.63;13.13;;;17.00;83.50;;;;;;5137451;27;20110;-36
2021/06/11 04:01:49;;;;;;;18.60;13.02;;;16.90;83.90;;;;;;5137062;27;20051;-36
2021/06/11 04:04:15;;;;;;;20.33;12.52;;;16.90;84.00;;;;;;5136455;27;20015;-37
2021/06/11 04:07:10;;;;;;;18.38;12.35;;;16.80;84.00;;;;;;5137051;27;20019;-37
2021/06/11 04:09:45;;;;;;;20.70;13.35;;;16.90;83.40;;;;;;5136530;27;20088;-37
2021/06/11 04:12:17;;;;;;;18.35;13.52;;;16.80;83.90;;;;;;5135670;27;20462;-37
2021/06/11 04:14:47;;;;;;;19.40;13.82;;;16.80;83.90;;;;;;5135668;27;20027;-37
2021/06/11 04:17:18;;;;;;;16.33;13.18;;;17.10;83.30;;;;;;5135963;27;20023;-37
2021/06/11 04:19:48;;;;;;;19.33;13.93;;;17.00;83.90;;;;;;5137181;27;20031;-37
2021/06/11 04:22:16;;;;;;;22.10;13.23;;;17.10;83.60;;;;;;5137248;27;20024;-36
2021/06/11 04:24:45;;;;;;;21.83;13.07;;;17.20;83.10;;;;;;5136603;27;20070;-36
2021/06/11 04:27:12;;;;;;;19.95;13.10;;;17.30;82.80;;;;;;5136958;27;20547;-37
2021/06/11 04:29:39;;;;;;;20.13;12.70;;;17.30;82.10;;;;;;5135268;27;20399;-37
2021/06/11 04:32:05;;;;;;;16.13;13.40;;;17.40;81.90;;;;;;5135210;27;20059;-37
2021/06/11 04:34:31;;;;;;;18.10;13.40;;;17.30;82.10;;;;;;5136835;27;20442;-37
2021/06/11 04:36:57;;;;;;;18.45;13.25;;;17.30;82.30;;;;;;5136364;27;20061;-37
2021/06/11 04:39:23;;;;;;;19.08;13.40;;;17.20;82.80;;;;;;5136398;27;20019;-37
2021/06/11 04:41:48;;;;;;;20.83;13.02;;;17.30;82.90;;;;;;5136490;27;20127;-37
2021/06/11 04:44:14;;;;;;;18.48;13.40;;;17.30;82.70;;;;;;5136246;27;20030;-36
2021/06/11 04:46:40;;;;;;;19.52;12.45;;;17.30;82.90;;;;;;5136485;27;20382;-36
2021/06/11 04:49:07;;;;;;;17.13;13.18;;;17.30;83.20;;;;;;5136495;27;20490;-37
2021/06/11 04:51:33;;;;;;;18.45;13.60;;;17.30;83.50;;;;;;5136376;27;20370;-36
2021/06/11 04:53:59;;;;;;;21.13;13.93;;;17.40;83.20;;;;;;5136039;27;20030;-37
2021/06/11 04:56:25;;;;;;;22.35;13.60;;;17.40;83.20;;;;;;5135978;27;20023;-37
2021/06/11 04:58:53;;;;;;;29.95;15.77;;;17.60;82.60;;;;;;5135948;27;20023;-37
2021/06/11 05:01:19;;;;;;;22.23;13.98;;;17.70;82.80;;;;;;5135740;27;20415;-37
2021/06/11 05:03:45;;;;;;;19.08;13.75;;;17.80;82.50;;;;;;5135606;27;20103;-37
2021/06/11 05:06:11;;;;;;;17.90;13.40;;;17.90;82.10;;;;;;5135843;27;20149;-37
2021/06/11 05:08:36;;;;;;;21.13;13.80;;;18.00;81.90;;;;;;5135642;27;20447;-37
2021/06/11 05:11:03;;;;;;;19.65;13.45;;;18.00;81.80;;;;;;5135782;27;20031;-37
2021/06/11 05:13:30;;;;;;;22.48;14.43;;;17.80;82.60;;;;;;5135607;27;20374;-36
2021/06/11 05:15:56;;;;;;;20.10;14.80;;;17.80;82.40;;;;;;5134265;27;20020;-37
2021/06/11 05:18:28;;;;;;;19.13;13.90;;;18.00;81.90;;;;;;5134184;27;20477;-36
2021/06/11 05:20:54;;;;;;;17.50;13.95;;;18.10;81.70;;;;;;5135475;27;20377;-36
2021/06/11 05:23:20;;;;;;;17.60;13.95;;;18.20;81.20;;;;;;5135723;27;20027;-37
2021/06/11 05:25:47;;;;;;;23.15;14.38;;;18.40;80.50;;;;;;5135085;27;20039;-37
2021/06/11 05:28:14;;;;;;;19.85;14.82;;;18.50;80.30;;;;;;5135124;27;20102;-37
2021/06/11 05:30:40;;;;;;;19.27;13.88;;;18.50;80.10;;;;;;5134930;27;20114;-36
2021/06/11 05:33:06;;;;;;;18.67;14.07;;;18.60;79.80;;;;;;5135275;27;20061;-36
2021/06/11 05:35:32;;;;;;;21.70;14.52;;;18.50;80.20;;;;;;5135317;27;20023;-37
2021/06/11 05:38:02;;;;;;;21.30;13.55;;;18.40;80.60;;;;;;5133492;27;20069;-37
2021/06/11 05:40:27;;;;;;;19.70;14.88;;;18.70;80.00;;;;;;5135729;27;20027;-38
2021/06/11 05:42:53;;;;;;;22.63;15.50;;;18.90;79.00;;;;;;5134705;27;20087;-37
2021/06/11 05:45:19;;;;;;;22.92;15.77;;;19.10;78.70;;;;;;5134768;27;20034;-37
2021/06/11 05:47:44;;;;;;;23.52;15.27;;;19.10;78.50;;;;;;5133606;27;20110;-37
2021/06/11 05:50:10;;;;;;;18.67;13.57;;;18.90;79.30;;;;;;5134997;27;20019;-37
2021/06/11 05:52:36;;;;;;;20.88;15.32;;;18.80;79.80;;;;;;5133276;27;20031;-37
2021/06/11 05:55:04;;;;;;;22.85;14.35;;;19.00;78.70;;;;;;5134895;27;20049;-37
2021/06/11 05:57:30;;;;;;;19.00;13.65;;;19.20;78.30;;;;;;5133204;27;20457;-37
2021/06/11 05:59:57;;;;;;;18.55;14.35;;;19.40;77.70;;;;;;5134816;27;20059;-37
2021/06/11 06:02:23;;;;;;;16.60;13.07;;;19.50;77.00;;;;;;5133351;27;20118;-37
2021/06/11 06:04:50;;;;;;;17.08;13.18;;;19.50;76.90;;;;;;5134529;27;20035;-37
2021/06/11 06:07:16;;;;;;;20.50;12.52;;;19.50;77.00;;;;;;5134867;27;20027;-38
2021/06/11 06:09:42;;;;;;;21.80;13.82;;;19.50;76.50;;;;;;5134870;27;20027;-37
2021/06/11 06:12:09;;;;;;;17.63;14.02;;;19.80;76.10;;;;;;5134281;27;20091;-37
2021/06/11 06:14:35;;;;;;;24.83;14.55;;;20.10;75.00;;;;;;5136356;27;20011;-37
2021/06/11 06:17:01;;;;;;;21.83;13.85;;;20.10;74.10;;;;;;5134383;27;20026;-37
2021/06/11 06:19:27;;;;;;;16.83;12.50;;;20.40;73.60;;;;;;5134647;27;20522;-36
2021/06/11 06:21:52;;;;;;;24.67;13.48;;;20.30;73.40;;;;;;5132947;27;20034;-36
2021/06/11 06:24:18;;;;;;;15.50;11.93;;;20.30;72.80;;;;;;5134056;27;20070;-37
2021/06/11 06:26:44;;;;;;;21.08;12.88;;;20.70;71.30;;;;;;5134198;27;20020;-37
2021/06/11 06:29:10;;;;;;;18.38;12.50;;;20.50;71.50;;;;;;5134292;27;20522;-37
2021/06/11 06:31:36;;;;;;;19.77;12.07;;;20.60;71.20;;;;;;5133920;27;20149;-38
2021/06/11 06:34:01;;;;;;;16.55;12.35;;;20.80;70.50;;;;;;5134081;28;20140;-38
2021/06/11 06:36:27;;;;;;;22.02;11.52;;;20.80;70.50;;;;;;5133520;28;20172;-37
2021/06/11 06:38:56;;;;;;;14.18;11.43;;;20.90;70.40;;;;;;5132476;28;20027;-38
2021/06/11 06:41:22;;;;;;;19.90;11.35;;;21.10;69.90;;;;;;5133803;27;20022;-37
2021/06/11 06:43:48;;;;;;;16.92;12.18;;;21.30;69.00;;;;;;5133894;27;20112;-36
2021/06/11 06:46:16;;;;;;;19.17;11.65;;;21.30;68.70;;;;;;5135403;27;20027;-36
2021/06/11 06:48:42;;;;;;;16.90;10.68;;;21.30;69.20;;;;;;5133765;27;20028;-37
2021/06/11 06:51:09;;;;;;;16.02;11.27;;;21.60;68.40;;;;;;5134241;27;20023;-37
2021/06/11 06:53:35;;;;;;;18.98;10.93;;;21.60;68.30;;;;;;5133879;27;20038;-37
2021/06/11 06:56:01;;;;;;;16.92;11.63;;;21.60;68.20;;;;;;5133760;28;20080;-37
2021/06/11 06:58:27;;;;;;;14.77;10.95;;;21.60;68.00;;;;;;5132330;28;20023;-37
2021/06/11 07:00:52;;;;;;;16.40;11.65;;;21.70;67.70;;;;;;5134217;28;20026;-36
2021/06/11 07:03:18;;;;;;;18.90;10.80;;;22.10;66.50;;;;;;5133659;27;20331;-37
2021/06/11 07:05:44;;;;;;;17.55;12.85;;;21.90;66.70;;;;;;5133702;27;20031;-36
2021/06/11 07:08:10;;;;;;;22.00;12.43;;;22.20;66.20;;;;;;5133681;27;20053;-37
2021/06/11 07:10:36;;;;;;;16.98;11.32;;;21.90;66.70;;;;;;5133660;27;20422;-37
2021/06/11 07:13:02;;;;;;;19.33;12.43;;;22.10;66.50;;;;;;5134071;28;20139;-37
2021/06/11 07:15:28;;;;;;;25.83;13.60;;;22.30;66.20;;;;;;5131900;28;20025;-37
2021/06/11 07:17:56;;;;;;;23.02;12.52;;;22.40;65.50;;;;;;5132734;28;20019;-39
2021/06/11 07:20:22;;;;;;;16.90;13.23;;;22.80;64.50;;;;;;5133052;27;20023;-36
2021/06/11 07:22:48;;;;;;;23.55;12.45;;;22.60;65.20;;;;;;5131757;28;20118;-38
2021/06/11 07:25:14;;;;;;;21.20;11.32;;;22.30;66.00;;;;;;5133077;28;20071;-42
2021/06/11 07:27:39;;;;;;;23.05;11.57;;;22.90;64.10;;;;;;5133164;28;20035;-37
2021/06/11 07:30:10;;;;;;;22.27;11.63;;;23.00;63.40;;;;;;5133174;28;20393;-37
2021/06/11 07:32:36;;;;;;;13.43;10.77;;;23.60;61.60;;;;;;5133083;27;20375;-37
2021/06/11 07:35:02;;;;;;;17.95;10.02;;;24.00;59.50;;;;;;5133723;27;20446;-37
2021/06/11 07:37:28;;;;;;;16.05;8.95;;;24.70;57.50;;;;;;5133226;27;20015;-37
2021/06/11 07:39:54;;;;;;;14.35;10.05;;;24.60;57.00;;;;;;5135227;27;20035;-38
2021/06/11 07:42:20;;;;;;;11.45;7.20;;;24.90;55.80;;;;;;5137375;27;20460;-37
2021/06/11 07:44:46;;;;;;;12.57;8.25;;;24.80;54.90;;;;;;5137124;27;20023;-37
2021/06/11 07:47:11;;;;;;;11.82;7.07;;;24.80;55.10;;;;;;5135498;27;20023;-37
2021/06/11 07:49:38;;;;;;;9.50;7.25;;;24.50;55.70;;;;;;5137144;27;20048;-39
2021/06/11 07:52:05;;;;;;;29.85;8.63;;;24.90;54.10;;;;;;5137046;27;20352;-36
2021/06/11 07:54:31;;;;;;;29.25;8.57;;;25.10;54.60;;;;;;5136712;27;20027;-36
2021/06/11 07:56:57;;;;;;;9.27;7.30;;;25.40;53.60;;;;;;5137330;27;20088;-36
2021/06/11 07:59:24;;;;;;;9.10;6.95;;;25.30;54.50;;;;;;5135545;27;20019;-37
2021/06/11 08:01:49;;;;;;;13.13;6.78;;;25.50;53.20;;;;;;5136653;27;20420;-37
2021/06/11 08:04:15;;;;;;;11.93;6.95;;;25.90;52.60;;;;;;5135479;27;20023;-37
2021/06/11 08:06:41;;;;;;;13.05;7.38;;;25.80;52.80;;;;;;5137090;27;20027;-38
2021/06/11 08:09:07;;;;;;;9.30;5.82;;;25.20;53.90;;;;;;5136217;27;20019;-38
2021/06/11 08:11:33;;;;;;;9.50;6.45;;;24.90;55.10;;;;;;5134679;27;20183;-38
2021/06/11 08:13:58;;;;;;;11.63;6.82;;;24.80;55.00;;;;;;5137001;27;20027;-38
2021/06/11 08:16:24;;;;;;;9.35;6.65;;;24.90;55.20;;;;;;5135495;27;20370;-37
2021/06/11 08:18:52;;;;;;;13.55;6.38;;;24.80;55.00;;;;;;5136133;27;20098;-36
2021/06/11 08:21:19;;;;;;;9.85;7.30;;;25.60;52.90;;;;;;5136144;27;20031;-36
2021/06/11 08:23:45;;;;;;;10.95;7.68;;;25.00;54.80;;;;;;5136104;27;20027;-37
2021/06/11 08:26:11;;;;;;;11.60;8.40;;;24.60;56.30;;;;;;5135061;27;20039;-37
2021/06/11 08:28:37;;;;;;;10.88;7.85;;;24.50;56.90;;;;;;5134826;27;20395;-36
2021/06/11 08:31:06;;;;;;;11.45;7.55;;;24.80;55.40;;;;;;5136364;27;20110;-37
2021/06/11 08:33:33;;;;;;;9.23;7.20;;;25.20;55.10;;;;;;5136093;27;20019;-37
2021/06/11 08:35:59;;;;;;;13.00;8.02;;;25.40;54.50;;;;;;5135569;27;20054;-37
2021/06/11 08:38:25;;;;;;;11.45;8.65;;;24.80;56.90;;;;;;5134863;27;20090;-36
2021/06/11 08:40:53;;;;;;;11.80;6.82;;;24.50;57.20;;;;;;5136988;27;20050;-40
2021/06/11 08:43:20;;;;;;;7.60;6.22;;;24.50;57.20;;;;;;5136214;27;20110;-36
2021/06/11 08:45:49;;;;;;;10.55;6.05;;;25.00;54.40;;;;;;5135507;27;20027;-36
2021/06/11 08:48:14;;;;;;;14.48;8.25;;;25.20;54.10;;;;;;5135913;27;20045;-36
2021/06/11 08:50:43;;;;;;;17.88;8.27;;;25.20;54.40;;;;;;5135648;27;20020;-37
2021/06/11 08:53:09;;;;;;;12.45;6.97;;;25.80;53.10;;;;;;5136067;27;20083;-37
2021/06/11 08:55:36;;;;;;;16.15;7.28;;;25.80;53.30;;;;;;5134960;27;20020;-36
2021/06/11 08:58:03;;;;;;;22.40;8.40;;;25.50;53.90;;;;;;5136144;27;20011;-37
2021/06/11 09:00:32;;;;;;;12.13;8.25;;;25.80;52.80;;;;;;5134930;27;20378;-38
2021/06/11 09:03:26;;;;;;;11.35;8.35;;;25.60;53.20;;;;;;5136790;27;20060;-36
2021/06/11 09:06:00;;;;;;;12.70;8.52;;;25.70;53.00;;;;;;5135686;27;20045;-37
2021/06/11 09:08:28;;;;;;;10.13;6.40;;;25.90;52.40;;;;;;5134147;27;20023;-38
2021/06/11 09:11:12;;;;;;;14.98;7.45;;;26.10;52.40;;;;;;5135711;27;20438;-39
2021/06/11 09:13:40;;;;;;;10.25;7.10;;;26.30;51.90;;;;;;5135625;27;20072;-38
2021/06/11 09:16:21;;;;;;;17.77;8.18;;;26.20;52.80;;;;;;5133804;27;20156;-37
2021/06/11 09:18:54;;;;;;;10.55;7.70;;;26.70;50.70;;;;;;5135480;27;20054;-38
2021/06/11 09:21:36;;;;;;;8.88;6.85;;;27.40;48.50;;;;;;5134945;27;20034;-37
2021/06/11 09:24:18;;;;;;;26.92;9.02;;;27.80;47.10;;;;;;5136624;27;20091;-37
2021/06/11 09:27:04;;;;;;;13.23;7.88;;;26.00;51.30;;;;;;5135057;27;20046;-40
2021/06/11 09:29:42;;;;;;;9.75;7.13;;;26.80;49.20;;;;;;5134913;27;20066;-39
2021/06/11 09:32:28;;;;;;;14.80;7.20;;;27.40;48.90;;;;;;5135025;27;20079;-38
2021/06/11 09:35:02;;;;;;;13.43;6.55;;;27.40;47.90;;;;;;5133402;27;20027;-39
2021/06/11 09:37:30;;;;;;;8.50;7.03;;;27.30;48.30;;;;;;5134815;27;20030;-38
2021/06/11 09:39:58;;;;;;;11.32;8.00;;;26.70;48.90;;;;;;5135504;27;20029;-38
2021/06/11 09:42:32;;;;;;;16.30;8.25;;;27.00;48.10;;;;;;5135285;27;20030;-37
2021/06/11 09:45:05;;;;;;;9.13;6.90;;;26.70;49.00;;;;;;5135079;27;20043;-39
2021/06/11 09:47:33;;;;;;;9.43;6.95;;;27.40;47.80;;;;;;5134541;27;20051;-38
2021/06/11 09:50:05;;;;;;;8.90;6.60;;;27.80;46.90;;;;;;5134079;27;20031;-38
2021/06/11 09:52:35;;;;;;;9.88;6.60;;;28.00;45.60;;;;;;5132871;27;20015;-38
2021/06/11 09:55:05;;;;;;;8.68;6.30;;;28.20;46.10;;;;;;5133061;27;20438;-37
2021/06/11 09:57:36;;;;;;;9.88;6.20;;;28.00;46.00;;;;;;5133159;27;20027;-37
2021/06/11 10:00:04;;;;;;;11.15;7.72;;;27.70;47.00;;;;;;5132811;27;20379;-37
2021/06/11 10:02:31;;;;;;;14.00;6.70;;;28.30;45.80;;;;;;5133500;27;20041;-37
2021/06/11 10:04:58;;;;;;;9.10;7.05;;;28.40;44.70;;;;;;5133954;27;20027;-37
2021/06/11 10:07:24;;;;;;;9.55;8.50;;;27.80;46.20;;;;;;5134385;27;20479;-37
2021/06/11 10:09:50;;;;;;;11.68;7.78;;;28.10;46.10;;;;;;5134360;27;20053;-37
2021/06/11 10:12:16;;;;;;;26.23;6.85;;;28.30;45.30;;;;;;5134461;27;20023;-42
2021/06/11 10:14:41;;;;;;;12.38;7.15;;;28.20;45.30;;;;;;5134467;27;20162;-37
2021/06/11 10:17:08;;;;;;;12.48;7.57;;;27.70;46.30;;;;;;5133012;27;20024;-38
2021/06/11 10:19:37;;;;;;;10.20;6.90;;;26.40;49.90;;;;;;5134159;27;20022;-41
2021/06/11 10:22:05;;;;;;;12.73;7.70;;;26.60;50.20;;;;;;5134011;27;20499;-37
2021/06/11 10:24:32;;;;;;;9.13;7.57;;;26.90;48.40;;;;;;5132319;27;20374;-38
2021/06/11 10:26:58;;;;;;;10.40;7.13;;;26.70;48.50;;;;;;5134736;27;20076;-38
2021/06/11 10:29:24;;;;;;;12.27;7.20;;;27.70;47.30;;;;;;5133565;27;20470;-37
2021/06/11 10:31:50;;;;;;;11.38;7.63;;;27.00;47.70;;;;;;5134734;27;20023;-37
2021/06/11 10:34:16;;;;;;;9.70;7.03;;;26.30;49.20;;;;;;5135540;27;20015;-37
2021/06/11 10:36:46;;;;;;;9.07;8.13;;;26.00;50.60;;;;;;5133541;28;20034;-37
2021/06/11 10:39:15;;;;;;;9.80;7.45;;;25.80;50.70;;;;;;5133416;27;20154;-38
2021/06/11 10:42:03;;;;;;;12.23;7.40;;;25.80;51.50;;;;;;5133662;27;20095;-37
2021/06/11 10:44:32;;;;;;;11.82;7.10;;;26.00;50.30;;;;;;5134094;27;20039;-37
2021/06/11 10:47:17;;;;;;;11.73;7.00;;;27.10;47.90;;;;;;5133579;28;20026;-40
2021/06/11 10:49:57;;;;;;;7.25;5.97;;;28.00;46.00;;;;;;5133364;27;20031;-37
2021/06/11 10:52:47;;;;;;;9.00;7.65;;;28.10;45.60;;;;;;5133893;27;20111;-37
2021/06/11 10:55:19;;;;;;;7.45;6.53;;;27.80;44.80;;;;;;5133796;27;20304;-37
2021/06/11 10:57:51;;;;;;;7.53;6.57;;;27.30;44.90;;;;;;5132210;28;20434;-39
2021/06/11 11:00:23;;;;;;;9.38;5.85;;;27.60;43.50;;;;;;5132181;28;20026;-37
2021/06/11 11:02:50;;;;;;;7.80;5.65;;;27.70;43.80;;;;;;5133495;28;20023;-39
2021/06/11 11:05:30;;;;;;;7.45;6.32;;;27.90;43.90;;;;;;5134154;27;20173;-37
2021/06/11 11:07:57;;;;;;;9.45;4.60;;;27.60;45.10;;;;;;5133852;27;20035;-37
2021/06/11 11:10:43;;;;;;;9.18;4.10;;;27.90;44.50;;;;;;5133143;27;20114;-37
2021/06/11 11:13:15;;;;;;;6.55;4.40;;;27.30;44.60;;;;;;5133857;27;20498;-38
2021/06/11 11:15:49;;;;;;;7.40;4.57;;;27.10;45.10;;;;;;5136861;27;20022;-37
2021/06/11 11:18:24;;;;;;;5.43;4.60;;;27.20;45.50;;;;;;5137692;27;20024;-37
2021/06/11 11:20:51;;;;;;;6.70;4.53;;;27.30;45.50;;;;;;5137583;27;20058;-37
2021/06/11 11:23:19;;;;;;;7.95;4.10;;;28.20;43.10;;;;;;5135676;27;20076;-38
2021/06/11 11:25:47;;;;;;;7.82;4.38;;;27.20;45.30;;;;;;5137211;27;20558;-36
2021/06/11 11:28:14;;;;;;;7.45;5.63;;;27.00;45.90;;;;;;5137647;27;20098;-37
2021/06/11 11:30:45;;;;;;;28.30;8.30;;;27.10;45.40;;;;;;5137145;27;20057;-37
2021/06/11 11:33:11;;;;;;;12.15;5.18;;;27.30;44.10;;;;;;5138309;27;20045;-36
2021/06/11 11:35:39;;;;;;;7.63;5.03;;;27.30;43.60;;;;;;5136975;27;20029;-38
2021/06/11 11:38:07;;;;;;;7.13;4.57;;;27.20;45.00;;;;;;5136990;27;20019;-38
2021/06/11 11:40:33;;;;;;;7.25;3.90;;;28.40;41.90;;;;;;5137021;27;20072;-38
2021/06/11 11:43:01;;;;;;;14.63;6.88;;;29.60;38.90;;;;;;5136732;27;20377;-36
2021/06/11 11:45:29;;;;;;;8.55;4.85;;;29.70;38.80;;;;;;5136643;27;20019;-37
2021/06/11 11:47:57;;;;;;;4.82;4.32;;;29.40;38.90;;;;;;5135122;27;20035;-38
2021/06/11 11:50:24;;;;;;;8.60;4.03;;;29.40;39.80;;;;;;5136283;27;20092;-39
2021/06/11 11:52:49;;;;;;;6.55;3.17;;;29.30;39.80;;;;;;5136751;27;20027;-37
2021/06/11 11:55:16;;;;;;;7.93;4.47;;;28.70;41.10;;;;;;5136813;27;20419;-37
2021/06/11 11:57:42;;;;;;;8.05;3.95;;;27.50;43.60;;;;;;5135323;27;20023;-37
2021/06/11 12:00:10;;;;;;;8.40;3.85;;;27.30;43.80;;;;;;5136789;27;20028;-38
2021/06/11 12:02:36;;;;;;;6.13;3.53;;;27.80;42.60;;;;;;5134832;27;20050;-37
2021/06/11 12:05:02;;;;;;;5.25;3.40;;;28.20;41.90;;;;;;5136795;27;20509;-38
2021/06/11 12:07:28;;;;;;;4.07;3.65;;;28.10;42.80;;;;;;5136618;27;20481;-37
2021/06/11 12:09:54;;;;;;;6.18;3.40;;;28.30;41.60;;;;;;5136294;27;20058;-37
2021/06/11 12:12:20;;;;;;;3.80;3.28;;;28.50;40.30;;;;;;5136225;27;20027;-38
2021/06/11 12:14:46;;;;;;;6.68;3.03;;;28.60;39.50;;;;;;5134776;27;20481;-36
2021/06/11 12:17:12;;;;;;;4.97;2.78;;;28.90;38.30;;;;;;5136061;27;20023;-39
2021/06/11 12:19:38;;;;;;;4.30;3.28;;;28.50;38.20;;;;;;5136617;27;20051;-38
2021/06/11 12:22:04;;;;;;;7.65;2.97;;;28.30;39.70;;;;;;5135973;27;20106;-38
2021/06/11 12:24:30;;;;;;;3.47;2.53;;;28.80;37.60;;;;;;5134395;27;20047;-37
2021/06/11 12:26:56;;;;;;;12.30;3.63;;;28.40;39.20;;;;;;5135677;27;20372;-37
2021/06/11 12:29:22;;;;;;;5.97;2.90;;;28.80;39.00;;;;;;5135574;27;20042;-37
2021/06/11 12:31:49;;;;;;;8.38;3.22;;;28.30;39.80;;;;;;5134725;27;20505;-37
2021/06/11 12:34:14;;;;;;;5.82;3.13;;;27.30;41.90;;;;;;5136796;27;20015;-37
2021/06/11 12:36:40;;;;;;;8.70;3.30;;;27.70;41.40;;;;;;5136205;27;20115;-37
2021/06/11 12:39:06;;;;;;;4.30;3.50;;;28.40;39.80;;;;;;5136106;27;20024;-36
2021/06/11 12:41:38;;;;;;;5.03;3.50;;;28.70;39.60;;;;;;5135123;27;20030;-37